Aeroporto :
LOGIN :

Iscrizione | Disclaimer

   EN    FR    IT 

 










Sommario :    VFR   VFR Marginale   IFR   IFR Intensivo   IFR Molto Intensivo
Visibilità : 
Base nubi : 
>= 8 km
>= 3000ft
5 / 8 km
1000 / 3000 ft
1500m / 5 km
500 / 1000 ft
800 / 1500m
200 / 500 ft
< 800m
< 200 ft
Simboli :   Temporali  Nebbia  Neve Forte  Precipitazioni Forti  Vento > 20 kt
SIGMETs :   Varie  Temporali  Ghiacco  Turbolenza  Onda orograficha  Ceneri Vulcaniche






- Altitudine del aeroporto : 2026 ft
- Codice IATA : TOJ


LETO - Madrid Torrejon

ULTIMO METAR :
  • 221510Z 20017KT 170V230 5000 RA FEW008 BKN013 BKN023 12/12 Q0992 NOSIG

METARs OBSOLETI :
  • 221431Z 19015KT 160V230 5000 BR SCT012 BKN020 BKN030 12/11 Q0992 NOSIG
  • 221400Z 19013KT 150V220 8000 BKN012 BKN022 BKN032 12/11 Q0992 NOSIG
  • 221300Z 18016KT 4000 -RA BR SCT010 BKN023 BKN035 11/10 Q0994 NOSIG
  • 221245Z 18016KT 5000 RA BR SCT011 BKN025 BKN050 10/10 Q0994 NOSIG

TAF TAF LETO
Valido dal 22 a 12 ore il 23 a 12 ore UTC


221100Z 2212/2312 21011KT 9999 SCT045 TX12/2215Z TN06/2305Z
PROB40
TEMPO 2212/2224 2000 RADZ BR BKN009
PROB40
TEMPO 2212/2221 22015G30KT
PROB40
TEMPO 2221/2312 24015G25KT



MetMap, La meteo Aeronautica in un colpo d'occhio ! - Copyright ORBIFLY Dicembre 2007 - Disclaimer

ORBIFLY MET'MAP TEAM :

Programmazione e sviluppo : Alexandra Zaïnal
Concezione e sviluppo : Baudouin d'Aumeries
Co-Programmazione e sviluppo : Marc-Olivier Méhu
Supporto tecnico e logistico : Manuel Goepfert
Aiuto per la traduzione : Arnaldo La Scala

Contatto : metmap@orbifly.com




FONTI E CREDITI :

   NOAA